Time;durP1;ratioP1;P1;durP2;ratioP2;P2;SDS_P1;SDS_P2;PMS_P1;PMS_P2;Temp;Humidity;BMP_temperature;BMP_pressure;BME280_temperature;BME280_humidity;BME280_pressure;Samples;Min_cycle;Max_cycle;Signal;HPM_P1;HPM_P2
2021/04/29 00:02:47;;;;;;;;;214.75;188.50;;;;;7.73;62.26;101750.66;4897594;29;8869;-74
2021/04/29 00:05:42;;;;;;;;;202.25;181.50;;;;;7.85;61.92;101739.28;4898423;29;8865;-74
2021/04/29 00:08:38;;;;;;;;;162.25;158.50;;;;;7.77;61.59;101733.28;4898627;29;9627;-74
2021/04/29 00:11:35;;;;;;;;;184.75;159.50;;;;;7.84;61.83;101740.41;4898326;29;8880;-74
2021/04/29 00:14:32;;;;;;;;;166.50;150.25;;;;;7.87;61.35;101743.41;4898596;29;8936;-74
2021/04/29 00:17:27;;;;;;;;;175.50;160.25;;;;;7.92;60.92;101743.38;4897641;29;8875;-74
2021/04/29 00:20:24;;;;;;;;;172.00;163.00;;;;;7.75;60.66;101737.44;4886970;29;8864;-74
2021/04/29 00:23:19;;;;;;;;;180.00;164.00;;;;;7.84;60.93;101734.91;4904634;29;8934;-74
2021/04/29 00:26:15;;;;;;;;;97.25;79.75;;;;;7.84;60.76;101743.97;4894568;29;8865;-74
2021/04/29 00:29:11;;;;;;;;;167.75;157.00;;;;;7.69;61.14;101739.41;4885799;29;8860;-74
2021/04/29 00:32:06;;;;;;;;;153.00;144.50;;;;;7.75;60.83;101735.50;4885170;29;8861;-74
2021/04/29 00:34:36;;;;;;;;;161.50;159.00;;;;;7.76;60.82;101739.09;4885357;29;9616;-74
2021/04/29 00:37:32;;;;;;;;;149.25;130.25;;;;;7.73;60.59;101748.72;4917004;29;8950;-74
2021/04/29 00:40:28;;;;;;;;;155.25;142.50;;;;;7.89;60.53;101741.16;4894045;29;8845;-74
2021/04/29 00:42:56;;;;;;;;;154.75;140.25;;;;;7.66;60.58;101737.19;4881910;29;8864;-74
2021/04/29 00:45:23;;;;;;;;;159.25;145.25;;;;;7.76;60.66;101736.34;4896318;29;8899;-74
2021/04/29 00:47:51;;;;;;;;;167.50;157.50;;;;;7.75;60.48;101740.19;4882677;29;8850;-73
2021/04/29 00:50:48;;;;;;;;;158.50;146.75;;;;;7.76;60.60;101739.91;4897752;29;8849;-74
2021/04/29 00:53:45;;;;;;;;;162.00;149.50;;;;;7.69;60.62;101735.84;4897697;29;9045;-74
2021/04/29 00:56:41;;;;;;;;;177.25;169.00;;;;;7.54;61.00;101736.75;4897939;29;8952;-74
2021/04/29 00:59:37;;;;;;;;;172.50;157.50;;;;;7.64;60.70;101739.44;4897887;29;8861;-74
2021/04/29 01:02:36;;;;;;;;;172.25;155.75;;;;;7.60;60.92;101734.78;4889170;29;8851;-74
2021/04/29 01:05:38;;;;;;;;;143.25;133.25;;;;;7.51;61.31;101738.16;4897437;29;8868;-74
2021/04/29 01:09:03;;;;;;;;;156.25;147.75;;;;;7.53;61.32;101735.09;4898671;29;8853;-74
2021/04/29 01:12:19;;;;;;;;;142.75;130.25;;;;;7.40;61.55;101728.28;4899628;29;8857;-74
2021/04/29 01:15:16;;;;;;;;;167.25;150.75;;;;;7.47;61.56;101731.56;4897569;29;9003;-74
2021/04/29 01:18:13;;;;;;;;;160.25;150.50;;;;;7.62;61.24;101743.59;4897227;29;8860;-74
2021/04/29 01:21:12;;;;;;;;;142.50;128.75;;;;;7.68;61.57;101740.50;4896649;29;8991;-74
2021/04/29 01:24:12;;;;;;;;;144.50;134.00;;;;;7.66;61.46;101733.63;4896367;29;8944;-74
2021/04/29 01:27:09;;;;;;;;;139.50;133.75;;;;;7.49;61.86;101729.34;4897201;29;8858;-73
2021/04/29 01:30:08;;;;;;;;;120.75;116.75;;;;;7.44;62.31;101729.38;4884800;29;8875;-73
2021/04/29 01:33:05;;;;;;;;;111.00;108.25;;;;;7.42;62.40;101728.00;4896733;29;8858;-74
2021/04/29 01:36:02;;;;;;;;;108.75;102.25;;;;;7.57;61.55;101732.59;4897000;29;8911;-73
2021/04/29 01:39:04;;;;;;;;;135.00;127.75;;;;;7.62;61.77;101724.31;4891932;29;8873;-74
2021/04/29 01:42:00;;;;;;;;;135.50;130.75;;;;;7.66;61.78;101726.19;4915979;29;8847;-74
2021/04/29 01:44:56;;;;;;;;;98.50;87.25;;;;;7.42;62.06;101723.31;4915472;29;8843;-74
2021/04/29 01:47:52;;;;;;;;;123.00;119.75;;;;;7.46;62.46;101720.84;4915860;29;8990;-74
2021/04/29 01:50:48;;;;;;;;;123.00;111.75;;;;;7.43;62.55;101713.94;4915663;29;8871;-74
2021/04/29 01:53:44;;;;;;;;;122.25;115.25;;;;;7.37;62.74;101712.38;4915620;29;8926;-74
2021/04/29 01:56:41;;;;;;;;;130.75;122.50;;;;;7.38;62.78;101714.00;4903117;29;8978;-74
2021/04/29 01:59:36;;;;;;;;;133.75;124.50;;;;;7.41;63.03;101721.69;4915463;29;8935;-74
2021/04/29 02:02:32;;;;;;;;;129.50;116.75;;;;;7.48;62.89;101726.88;4894487;29;8868;-75
2021/04/29 02:05:27;;;;;;;;;133.25;122.50;;;;;7.53;62.81;101732.34;4884259;29;8899;-74
2021/04/29 02:08:24;;;;;;;;;155.00;145.00;;;;;7.59;62.93;101733.97;4902124;29;8855;-74
2021/04/29 02:11:21;;;;;;;;;144.25;137.25;;;;;7.57;63.00;101730.66;4901386;29;8900;-75
2021/04/29 02:14:26;;;;;;;;;116.00;109.75;;;;;7.48;62.98;101730.44;4896401;29;8861;-74
2021/04/29 02:17:40;;;;;;;;;115.50;106.00;;;;;7.39;62.82;101737.66;4883296;29;8873;-74
2021/04/29 02:20:39;;;;;;;;;101.33;91.00;;;;;7.35;63.45;101747.56;4895862;29;8857;-74
2021/04/29 02:23:35;;;;;;;;;103.00;94.67;;;;;7.41;63.47;101746.44;4896662;29;8908;-74
2021/04/29 02:26:33;;;;;;;;;119.25;111.00;;;;;7.35;62.95;101753.09;4877840;29;8920;-74
2021/04/29 02:29:31;;;;;;;;;168.25;154.00;;;;;7.37;63.05;101750.06;4865520;29;8872;-75
2021/04/29 02:32:28;;;;;;;;;218.50;199.75;;;;;7.24;63.74;101752.31;4881416;29;8877;-74
2021/04/29 02:35:24;;;;;;;;;204.25;180.00;;;;;7.25;63.81;101753.16;4892444;29;8873;-74
2021/04/29 02:38:20;;;;;;;;;198.50;174.75;;;;;7.19;63.80;101749.59;4915416;29;8856;-74
2021/04/29 02:41:16;;;;;;;;;173.75;147.75;;;;;7.30;63.89;101757.81;4914408;29;8870;-74
2021/04/29 02:44:13;;;;;;;;;195.50;191.75;;;;;7.42;63.53;101764.59;4915351;29;8893;-74
2021/04/29 02:47:08;;;;;;;;;184.50;166.50;;;;;7.43;63.47;101777.25;4892842;29;8976;-75
2021/04/29 02:50:08;;;;;;;;;187.75;162.75;;;;;7.51;62.94;101784.94;4896245;29;8853;-74
2021/04/29 02:52:59;;;;;;;;;170.50;148.75;;;;;7.38;63.94;101782.81;4882891;29;8961;-74
2021/04/29 02:55:55;;;;;;;;;161.75;149.75;;;;;7.41;63.32;101778.66;4883869;29;8868;-74
2021/04/29 02:58:22;;;;;;;;;127.25;115.00;;;;;7.28;63.74;101785.59;4897528;29;8861;-74
2021/04/29 03:00:59;;;;;;;;;62.25;50.75;;;;;7.39;63.16;101781.69;4897267;29;8861;-74
2021/04/29 03:03:55;;;;;;;;;93.00;82.25;;;;;7.33;63.81;101780.06;4892522;29;8996;-74
2021/04/29 03:06:50;;;;;;;;;105.00;101.75;;;;;7.29;63.70;101780.94;4908803;29;8858;-74
2021/04/29 03:09:47;;;;;;;;;103.75;93.00;;;;;7.39;63.69;101773.44;4915044;29;9680;-74
2021/04/29 03:12:42;;;;;;;;;109.00;105.25;;;;;7.34;63.77;101778.13;4915691;29;8860;-74
2021/04/29 03:15:38;;;;;;;;;106.50;103.75;;;;;7.54;63.55;101780.78;4914939;29;8894;-74
2021/04/29 03:18:35;;;;;;;;;119.00;115.00;;;;;7.76;63.06;101780.41;4902848;29;8837;-74
2021/04/29 03:21:31;;;;;;;;;109.00;105.25;;;;;7.75;62.60;101784.25;4885778;29;8872;-74
2021/04/29 03:24:29;;;;;;;;;107.50;105.25;;;;;7.68;62.59;101786.50;4891338;29;8957;-74
2021/04/29 03:27:27;;;;;;;;;103.67;93.00;;;;;7.89;62.84;101787.19;4879643;29;8897;-74
2021/04/29 03:30:30;;;;;;;;;115.00;102.67;;;;;7.79;62.75;101782.56;4892080;29;8856;-73
2021/04/29 03:33:08;;;;;;;;;101.67;92.67;;;;;7.88;62.62;101783.59;4880460;29;8971;-74
2021/04/29 03:36:04;;;;;;;;;104.33;94.00;;;;;7.74;62.55;101775.19;4886638;29;8858;-74
2021/04/29 03:38:54;;;;;;;;;105.33;93.00;;;;;7.78;62.70;101770.72;4879160;29;8871;-74
2021/04/29 03:41:52;;;;;;;;;100.33;84.33;;;;;7.83;62.72;101774.56;4888207;29;8865;-74
2021/04/29 03:44:19;;;;;;;;;103.00;95.33;;;;;7.93;62.07;101766.22;4892486;29;8881;-74
2021/04/29 03:47:15;;;;;;;;;95.33;78.67;;;;;8.02;62.30;101770.00;4877342;29;8904;-75
2021/04/29 03:50:11;;;;;;;;;91.00;75.67;;;;;8.15;61.69;101769.34;4887208;29;8834;-74
2021/04/29 03:53:06;;;;;;;;;86.33;70.33;;;;;7.98;62.63;101761.50;4890568;29;9731;-75
2021/04/29 03:56:02;;;;;;;;;85.67;67.67;;;;;8.19;62.04;101762.13;4889585;29;8948;-74
2021/04/29 03:58:58;;;;;;;;;85.00;69.00;;;;;8.19;62.24;101755.81;4880468;29;8871;-74
2021/04/29 04:01:54;;;;;;;;;84.33;67.33;;;;;8.26;62.04;101764.56;4886282;29;8871;-75
2021/04/29 04:04:51;;;;;;;;;72.25;58.00;;;;;8.47;61.64;101757.78;4858975;29;8891;-75
2021/04/29 04:07:47;;;;;;;;;68.75;57.75;;;;;8.50;61.67;101759.94;4875239;29;11684;-74
2021/04/29 04:10:31;;;;;;;;;71.50;58.00;;;;;8.63;61.50;101756.53;4862393;29;11678;-74
2021/04/29 04:12:59;;;;;;;;;72.00;59.25;;;;;8.76;61.28;101760.53;4876389;29;11336;-74
2021/04/29 04:15:55;;;;;;;;;62.50;53.75;;;;;9.03;60.57;101765.44;4859244;29;11651;-74
2021/04/29 04:18:50;;;;;;;;;65.00;54.50;;;;;9.05;60.60;101760.47;4854785;29;11690;-74
2021/04/29 04:21:46;;;;;;;;;66.00;54.25;;;;;9.14;60.62;101755.13;4868935;29;11670;-75
2021/04/29 04:24:13;;;;;;;;;65.00;52.50;;;;;9.22;60.56;101756.41;4858771;29;11748;-74
2021/04/29 04:27:10;;;;;;;;;60.50;51.75;;;;;9.22;60.55;101760.00;4866359;29;11647;-72
2021/04/29 04:30:06;;;;;;;;;61.00;51.00;;;;;9.45;60.34;101753.59;4861100;29;12466;-73
2021/04/29 04:33:01;;;;;;;;;60.50;50.50;;;;;9.50;60.65;101760.16;4870203;29;11723;-74
2021/04/29 04:35:57;;;;;;;;;50.25;43.50;;;;;9.65;60.28;101762.69;4872927;29;11715;-73
2021/04/29 04:38:54;;;;;;;;;56.00;46.25;;;;;9.73;60.34;101748.22;4862147;29;11576;-74
2021/04/29 04:41:51;;;;;;;;;60.50;51.00;;;;;9.70;60.75;101754.34;4867099;29;11633;-75
2021/04/29 04:44:48;;;;;;;;;61.00;51.00;;;;;9.87;60.62;101751.84;4862866;29;11698;-74
2021/04/29 04:47:43;;;;;;;;;64.50;52.25;;;;;10.03;60.72;101747.72;4863599;29;11724;-74
2021/04/29 04:50:11;;;;;;;;;62.00;51.50;;;;;10.15;60.55;101755.56;4867514;29;11644;-74
2021/04/29 04:52:43;;;;;;;;;69.00;56.00;;;;;10.19;60.58;101756.59;4878615;29;11670;-75
2021/04/29 04:55:11;;;;;;;;;73.50;54.00;;;;;10.27;60.44;101755.94;4875904;29;12444;-75
2021/04/29 04:57:41;;;;;;;;;69.00;56.00;;;;;10.46;60.30;101753.13;4875806;29;11664;-74
2021/04/29 05:00:09;;;;;;;;;68.00;54.50;;;;;10.60;60.34;101747.63;4875513;29;11649;-73
2021/04/29 05:03:05;;;;;;;;;66.75;52.75;;;;;10.77;59.99;101745.06;4863832;29;11639;-73
2021/04/29 05:06:01;;;;;;;;;65.00;52.00;;;;;10.93;59.78;101753.06;4874802;29;11728;-74
2021/04/29 05:08:58;;;;;;;;;60.25;50.50;;;;;11.20;59.18;101750.28;4878146;29;11649;-74
2021/04/29 05:11:26;;;;;;;;;63.00;51.75;;;;;11.22;59.30;101752.75;4879314;29;13031;-74
2021/04/29 05:14:02;;;;;;;;;59.50;47.25;;;;;11.42;58.97;101743.97;4879845;29;11635;-74
2021/04/29 05:16:58;;;;;;;;;47.75;39.00;;;;;11.67;58.91;101748.13;4872751;29;11669;-74
2021/04/29 05:19:26;;;;;;;;;58.00;48.75;;;;;11.86;58.40;101743.25;4879522;29;11688;-74
2021/04/29 05:22:17;;;;;;;;;59.00;48.25;;;;;12.12;57.56;101749.03;4884745;29;11646;-74
2021/04/29 05:25:13;;;;;;;;;59.00;46.25;;;;;12.36;57.02;101743.13;4897052;29;11733;-74
2021/04/29 05:28:09;;;;;;;;;55.75;44.75;;;;;12.38;56.72;101748.38;4896683;29;11611;-73
2021/04/29 05:30:36;;;;;;;;;54.75;45.75;;;;;12.62;56.33;101737.72;4897510;29;12486;-74
2021/04/29 05:33:33;;;;;;;;;48.25;41.75;;;;;12.86;56.24;101731.78;4897253;29;11537;-73
2021/04/29 05:36:28;;;;;;;;;34.50;30.75;;;;;13.08;55.10;101725.31;4896082;29;12426;-74
2021/04/29 05:39:24;;;;;;;;;25.50;23.50;;;;;13.37;54.58;101733.09;4896856;29;11229;-73
2021/04/29 06:18:41;;;;;;;;;10.50;10.50;;;;;14.74;48.19;101719.38;5666003;23;9615;-78
2021/04/29 06:21:09;;;;;;;;;18.50;17.50;;;;;14.78;47.77;101719.50;4897506;29;9656;-77
2021/04/29 06:23:37;;;;;;;;;12.25;12.25;;;;;14.76;47.83;101719.84;4897497;29;9757;-77
2021/04/29 06:26:04;;;;;;;;;15.00;14.50;;;;;14.68;48.24;101738.22;4897529;29;9731;-77
2021/04/29 06:28:33;;;;;;;;;13.25;13.25;;;;;15.14;47.46;101738.50;4897249;29;9642;-77
2021/04/29 06:31:01;;;;;;;;;28.25;27.00;;;;;15.43;48.24;101737.66;4897225;29;9496;-78
2021/04/29 06:33:28;;;;;;;;;25.25;18.25;;;;;15.52;46.73;101744.00;4892179;29;10281;-77
2021/04/29 06:35:55;;;;;;;;;16.00;16.00;;;;;15.82;46.61;101734.44;4880954;29;10311;-78
2021/04/29 06:38:51;;;;;;;;;11.67;11.67;;;;;15.81;46.89;101743.97;4890460;29;9503;-77
2021/04/29 06:41:47;;;;;;;;;14.00;14.00;;;;;15.88;45.66;101753.75;4895895;29;9299;-78
2021/04/29 06:44:43;;;;;;;;;12.33;10.67;;;;;15.74;46.00;101754.84;4892199;29;9155;-77
2021/04/29 06:47:38;;;;;;;;;11.33;11.33;;;;;16.13;45.96;101756.31;4882842;29;9170;-78
2021/04/29 06:50:35;;;;;;;;;12.00;12.00;;;;;15.85;46.80;101761.63;4867361;29;9308;-77
2021/04/29 06:53:31;;;;;;;;;13.67;13.67;;;;;15.85;47.63;101767.22;4879969;29;9085;-78
2021/04/29 06:56:26;;;;;;;;;13.00;13.00;;;;;16.01;47.03;101761.00;4876934;29;9984;-77
2021/04/29 06:59:22;;;;;;;;;13.67;13.67;;;;;15.94;47.65;101766.31;4907532;29;9251;-78
2021/04/29 07:02:18;;;;;;;;;14.00;14.00;;;;;15.89;47.82;101763.75;4889314;29;9262;-79
2021/04/29 07:05:13;;;;;;;;;13.00;13.00;;;;;16.07;47.40;101776.38;4899819;29;9964;-78
2021/04/29 07:08:09;;;;;;;;;17.00;13.67;;;;;15.88;47.71;101764.91;4882074;29;9098;-77
2021/04/29 07:11:05;;;;;;;;;12.33;12.33;;;;;16.13;47.76;101761.06;4882327;29;9207;-79
2021/04/29 07:14:00;;;;;;;;;13.33;13.33;;;;;16.42;47.99;101759.31;4880850;29;9357;-78
2021/04/29 07:16:56;;;;;;;;;13.67;12.67;;;;;16.62;47.39;101758.41;4881059;29;9294;-78
2021/04/29 07:19:52;;;;;;;;;13.00;13.00;;;;;16.81;46.69;101758.72;4910596;29;9232;-79
2021/04/29 07:22:47;;;;;;;;;10.00;10.00;;;;;16.63;47.08;101749.69;4913194;29;9192;-77
2021/04/29 07:25:43;;;;;;;;;15.00;15.00;;;;;16.60;47.59;101744.00;4899601;29;9061;-80
2021/04/29 07:28:38;;;;;;;;;16.33;16.33;;;;;16.74;47.29;101743.69;4904546;29;9142;-78
2021/04/29 07:31:35;;;;;;;;;15.33;15.33;;;;;16.83;47.27;101739.63;4913528;29;9098;-79
2021/04/29 07:34:30;;;;;;;;;14.00;14.00;;;;;16.95;47.04;101748.03;4918276;29;9073;-79
2021/04/29 07:37:26;;;;;;;;;16.67;15.67;;;;;17.17;46.37;101738.34;4914834;29;9019;-78
2021/04/29 07:40:21;;;;;;;;;15.25;15.25;;;;;16.95;46.40;101736.84;4916480;29;8950;-78
2021/04/29 07:43:17;;;;;;;;;9.33;9.33;;;;;16.74;47.13;101740.91;4916521;29;8941;-78
2021/04/29 07:46:13;;;;;;;;;15.00;15.00;;;;;17.12;46.54;101723.81;4914680;29;8965;-77
2021/04/29 07:49:08;;;;;;;;;13.00;13.00;;;;;17.49;46.24;101732.97;4903012;29;8957;-78
2021/04/29 07:52:04;;;;;;;;;12.00;12.00;;;;;17.63;45.41;101736.16;4904456;29;8886;-80
2021/04/29 07:55:01;;;;;;;;;13.00;13.00;;;;;18.17;45.00;101737.75;4917750;29;8855;-79
2021/04/29 07:57:57;;;;;;;;;12.75;12.75;;;;;18.39;45.04;101725.97;4886344;29;8850;-78
2021/04/29 08:00:53;;;;;;;;;12.75;12.75;;;;;18.50;43.48;101724.28;4912534;29;8863;-79
2021/04/29 08:03:49;;;;;;;;;13.25;13.25;;;;;18.73;44.19;101723.69;4905862;29;8859;-79
2021/04/29 08:06:44;;;;;;;;;12.50;12.50;;;;;19.05;43.74;101739.31;4916410;29;8859;-79
2021/04/29 08:09:40;;;;;;;;;11.50;11.50;;;;;19.18;42.11;101734.41;4898839;29;8838;-80
2021/04/29 08:12:38;;;;;;;;;11.50;11.50;;;;;19.24;42.57;101734.91;4888806;29;8913;-78
2021/04/29 08:15:33;;;;;;;;;13.25;12.25;;;;;18.99;43.00;101734.34;4913257;29;8847;-76
2021/04/29 08:18:30;;;;;;;;;10.25;10.25;;;;;19.36;42.45;101732.81;4903497;29;8891;-79
2021/04/29 08:21:26;;;;;;;;;12.25;12.25;;;;;18.85;43.46;101724.38;4907591;29;8963;-78
2021/04/29 08:24:22;;;;;;;;;9.00;9.00;;;;;18.80;43.95;101721.88;4893140;29;8870;-79
2021/04/29 08:27:18;;;;;;;;;12.00;12.00;;;;;19.35;44.12;101713.56;4902450;29;8914;-79
2021/04/29 08:30:16;;;;;;;;;11.50;11.25;;;;;19.65;43.32;101714.66;4916452;29;8889;-78
2021/04/29 08:33:11;;;;;;;;;11.25;11.25;;;;;19.71;43.38;101712.38;4916554;29;8930;-79
2021/04/29 08:36:08;;;;;;;;;15.00;15.00;;;;;19.80;42.23;101700.94;4905927;29;8867;-79
2021/04/29 08:39:05;;;;;;;;;14.00;13.25;;;;;20.39;41.72;101714.50;4908565;29;8892;-80
2021/04/29 08:42:01;;;;;;;;;14.00;14.00;;;;;20.51;41.15;101708.75;4907196;29;8980;-79
2021/04/29 08:44:57;;;;;;;;;12.25;12.25;;;;;20.36;41.23;101712.47;4883902;29;8863;-78
2021/04/29 08:47:55;;;;;;;;;12.50;12.50;;;;;20.58;42.22;101708.06;4914567;29;8901;-79
2021/04/29 08:50:53;;;;;;;;;11.00;11.00;;;;;20.89;41.31;101703.38;4903737;29;8851;-81
2021/04/29 08:53:49;;;;;;;;;12.00;11.50;;;;;20.71;41.35;101700.28;4903185;29;8863;-79
2021/04/29 08:56:46;;;;;;;;;12.50;12.50;;;;;20.77;40.94;101695.94;4904067;29;9589;-79
2021/04/29 08:59:42;;;;;;;;;15.75;15.75;;;;;20.30;41.80;101685.84;4885751;29;8899;-79
2021/04/29 09:02:38;;;;;;;;;10.25;10.25;;;;;20.43;40.92;101689.31;4908170;29;8862;-81
2021/04/29 09:05:34;;;;;;;;;16.50;16.50;;;;;20.56;41.38;101687.16;4904456;29;8882;-79
2021/04/29 09:08:31;;;;;;;;;11.50;11.50;;;;;20.77;41.17;101681.88;4914944;29;8851;-80
2021/04/29 09:11:27;;;;;;;;;12.00;12.00;;;;;20.74;40.65;101675.00;4916257;29;8878;-80
2021/04/29 09:14:30;;;;;;;;;11.50;11.50;;;;;21.05;40.26;101676.72;4915337;29;8890;-79
2021/04/29 09:17:27;;;;;;;;;14.00;12.75;;;;;21.24;39.73;101658.91;4897543;29;8873;-79
2021/04/29 09:20:22;;;;;;;;;11.25;11.25;;;;;21.29;39.14;101672.66;4896560;29;8972;-79
2021/04/29 09:23:27;;;;;;;;;10.75;10.75;;;;;21.24;38.96;101646.81;4898816;29;9591;-78
2021/04/29 09:26:22;;;;;;;;;9.50;9.25;;;;;21.26;39.72;101653.72;4914866;29;8882;-78
2021/04/29 09:29:18;;;;;;;;;12.00;12.00;;;;;21.69;38.56;101654.28;4916087;29;8890;-79
2021/04/29 09:32:22;;;;;;;;;8.00;8.00;;;;;21.95;37.83;101649.75;4903551;29;8886;-79
2021/04/29 09:35:20;;;;;;;;;11.25;10.75;;;;;22.22;36.04;101645.63;4903575;29;8847;-79
2021/04/29 09:38:16;;;;;;;;;10.00;10.00;;;;;22.32;36.74;101636.50;4897809;29;8993;-78
2021/04/29 09:41:22;;;;;;;;;9.25;9.25;;;;;22.23;37.99;101638.78;4909287;29;8867;-79
2021/04/29 09:44:23;;;;;;;;;11.75;11.75;;;;;21.80;37.53;101634.72;4881266;29;8874;-78
2021/04/29 09:47:19;;;;;;;;;9.75;9.75;;;;;21.77;38.24;101627.00;4905204;29;8859;-79
2021/04/29 09:50:22;;;;;;;;;10.25;10.25;;;;;22.14;37.65;101633.47;4897731;29;8857;-79
2021/04/29 09:53:21;;;;;;;;;9.25;9.25;;;;;22.02;37.52;101636.56;4901918;29;8869;-80
2021/04/29 09:56:19;;;;;;;;;10.75;10.75;;;;;22.12;36.71;101643.53;4889135;29;8926;-76
2021/04/29 09:59:15;;;;;;;;;11.00;11.00;;;;;22.31;37.01;101628.41;4915313;29;8874;-79
2021/04/29 10:02:12;;;;;;;;;9.50;9.50;;;;;22.09;36.51;101628.22;4915690;29;8879;-78
2021/04/29 10:05:08;;;;;;;;;11.50;11.25;;;;;21.73;37.17;101610.09;4902248;29;9066;-78
2021/04/29 10:08:12;;;;;;;;;14.50;14.25;;;;;22.13;37.06;101605.72;4914383;29;8870;-78
2021/04/29 10:11:09;;;;;;;;;11.75;11.75;;;;;22.56;35.62;101614.53;4902729;29;8914;-77
2021/04/29 10:14:09;;;;;;;;;10.50;10.50;;;;;22.44;34.45;101607.19;4883782;29;8841;-78
2021/04/29 10:17:09;;;;;;;;;11.00;11.00;;;;;22.70;33.04;101604.19;4910758;29;8863;-79
2021/04/29 10:20:05;;;;;;;;;11.00;10.25;;;;;22.92;34.46;101612.78;4912772;29;8843;-80
2021/04/29 10:23:01;;;;;;;;;11.75;11.75;;;;;22.83;34.59;101601.81;4915067;29;8870;-76
2021/04/29 10:25:58;;;;;;;;;10.00;10.00;;;;;22.60;35.13;101590.00;4915375;29;8890;-78
2021/04/29 10:29:00;;;;;;;;;10.25;10.25;;;;;22.30;35.67;101601.41;4915111;29;8859;-77
2021/04/29 10:31:58;;;;;;;;;13.25;12.50;;;;;22.06;36.21;101606.41;4917051;29;8847;-79
2021/04/29 10:34:53;;;;;;;;;10.75;10.75;;;;;21.99;35.24;101597.06;4918971;29;9633;-79
2021/04/29 10:38:03;;;;;;;;;11.00;11.00;;;;;21.71;35.76;101589.97;4917333;29;8839;-77
2021/04/29 10:41:01;;;;;;;;;8.75;8.75;;;;;22.07;35.77;101593.13;4913896;29;9482;-77
2021/04/29 10:44:11;;;;;;;;;14.00;14.00;;;;;21.96;36.39;101583.78;4917879;29;8858;-78
2021/04/29 10:47:07;;;;;;;;;10.25;10.25;;;;;21.95;35.52;101582.97;4916123;29;8942;-76
2021/04/29 10:50:15;;;;;;;;;12.50;12.50;;;;;21.89;36.32;101585.31;4918715;29;8865;-76
2021/04/29 10:53:12;;;;;;;;;10.50;10.50;;;;;21.82;36.63;101578.81;4906105;29;8887;-78
2021/04/29 10:56:15;;;;;;;;;9.25;9.25;;;;;21.55;36.77;101578.13;4918663;29;8867;-77
2021/04/29 10:59:14;;;;;;;;;10.50;10.50;;;;;21.53;37.92;101584.13;4919215;29;8851;-76
2021/04/29 11:02:35;;;;;;;;;12.00;12.00;;;;;21.34;37.75;101575.88;4899095;29;8983;-77
2021/04/29 11:05:33;;;;;;;;;18.00;16.75;;;;;21.44;38.47;101569.53;4916712;29;8869;-77
2021/04/29 11:08:36;;;;;;;;;11.00;11.00;;;;;21.33;38.54;101563.81;4918195;29;9645;-76
2021/04/29 11:11:35;;;;;;;;;10.75;10.75;;;;;21.41;38.34;101566.72;4917770;29;8953;-77
2021/04/29 11:14:44;;;;;;;;;11.50;11.25;;;;;21.10;38.26;101560.25;4909609;29;8870;-76
2021/04/29 11:17:40;;;;;;;;;10.25;10.25;;;;;20.97;38.98;101554.06;4918092;29;8859;-77
2021/04/29 11:20:55;;;;;;;;;9.50;9.50;;;;;21.23;39.04;101552.38;4918468;29;8855;-78
2021/04/29 11:23:51;;;;;;;;;12.25;12.25;;;;;21.34;39.70;101544.91;4918355;29;8871;-77
2021/04/29 11:26:46;;;;;;;;;11.00;11.00;;;;;21.34;38.66;101542.91;4916196;29;8879;-76
2021/04/29 11:29:42;;;;;;;;;11.50;11.50;;;;;22.26;38.34;101542.22;4900127;29;8953;-77
2021/04/29 11:32:39;;;;;;;;;10.75;10.75;;;;;22.72;38.13;101536.91;4911979;29;8874;-77
2021/04/29 11:35:37;;;;;;;;;11.75;11.75;;;;;22.72;37.00;101534.09;4915701;29;8909;-78
2021/04/29 11:38:32;;;;;;;;;11.50;11.50;;;;;22.72;36.71;101531.28;4887386;29;8833;-78
2021/04/29 11:41:29;;;;;;;;;9.50;9.50;;;;;22.82;37.53;101528.91;4911793;29;8888;-78
2021/04/29 11:44:24;;;;;;;;;21.50;13.00;;;;;22.37;36.71;101539.47;4917250;29;8962;-77
2021/04/29 11:47:20;;;;;;;;;9.00;9.00;;;;;22.44;37.36;101523.44;4911232;29;8883;-76
2021/04/29 11:50:21;;;;;;;;;8.50;8.50;;;;;22.85;37.12;101517.69;4904191;29;8897;-77
2021/04/29 11:53:29;;;;;;;;;8.50;8.50;;;;;23.13;36.95;101510.53;4912737;29;8965;-78
2021/04/29 11:56:24;;;;;;;;;9.50;9.50;;;;;22.51;37.17;101510.59;4903600;29;8847;-79
2021/04/29 11:59:29;;;;;;;;;8.20;8.20;;;;;22.61;36.34;101504.22;4902445;29;8877;-77
2021/04/29 12:02:25;;;;;;;;;15.00;15.00;;;;;22.41;37.55;101515.78;4910900;29;8856;-77
2021/04/29 12:05:32;;;;;;;;;8.25;8.25;;;;;22.02;37.92;101515.44;4936644;29;8892;-76
2021/04/29 12:08:34;;;;;;;;;10.25;9.00;;;;;22.13;37.00;101513.53;4934067;29;8920;-76
2021/04/29 12:11:30;;;;;;;;;7.00;7.00;;;;;22.42;36.61;101508.94;4918384;29;8881;-77
2021/04/29 12:14:27;;;;;;;;;7.00;7.00;;;;;22.50;35.82;101506.16;4918190;29;8857;-76
2021/04/29 12:17:24;;;;;;;;;19.50;14.00;;;;;23.35;35.10;101498.13;4917655;29;8873;-77
2021/04/29 12:20:20;;;;;;;;;7.25;7.25;;;;;23.52;34.12;101497.34;4898636;29;8955;-77
2021/04/29 12:23:17;;;;;;;;;8.40;8.40;;;;;23.41;34.63;101502.16;4898255;29;8944;-77
2021/04/29 12:26:14;;;;;;;;;7.40;7.40;;;;;23.00;34.78;101493.16;4898117;29;8980;-77
2021/04/29 12:29:11;;;;;;;;;7.60;7.60;;;;;22.72;35.33;101493.81;4898131;29;9037;-76
2021/04/29 12:32:07;;;;;;;;;6.80;6.80;;;;;22.52;35.58;101498.13;4897686;29;8861;-76
2021/04/29 12:35:04;;;;;;;;;21.00;13.25;;;;;22.22;35.68;101490.66;4916444;29;8869;-78
2021/04/29 12:38:00;;;;;;;;;7.75;7.75;;;;;22.23;36.17;101495.09;4898638;29;8876;-77
2021/04/29 12:41:04;;;;;;;;;7.25;7.25;;;;;22.28;34.54;101486.28;4898007;29;8869;-77
2021/04/29 12:44:05;;;;;;;;;7.00;7.00;;;;;22.25;34.72;101483.47;4898109;29;8845;-78
2021/04/29 12:47:01;;;;;;;;;5.67;5.67;;;;;22.33;34.83;101482.31;4897958;29;8865;-77
2021/04/29 12:50:00;;;;;;;;;7.00;7.00;;;;;22.18;34.84;101485.03;4897986;29;8845;-78
2021/04/29 12:52:59;;;;;;;;;7.60;7.60;;;;;22.34;35.07;101476.28;4897845;29;8865;-78
2021/04/29 12:55:55;;;;;;;;;6.00;6.00;;;;;22.34;34.28;101483.91;4906585;29;8866;-78
2021/04/29 12:58:51;;;;;;;;;6.00;6.00;;;;;22.39;35.37;101481.56;4916333;29;8879;-77
2021/04/29 13:02:07;;;;;;;;;6.75;6.75;;;;;22.07;34.51;101478.44;4905517;29;9648;-76
2021/04/29 13:05:06;;;;;;;;;7.25;7.25;;;;;22.09;34.29;101478.94;4916504;29;8863;-77
2021/04/29 13:08:02;;;;;;;;;5.75;5.75;;;;;22.26;35.66;101468.16;4914907;29;8875;-76
2021/04/29 13:10:57;;;;;;;;;4.00;4.00;;;;;22.42;34.66;101463.84;4898520;29;8889;-76
2021/04/29 13:14:04;;;;;;;;;7.60;7.60;;;;;22.29;35.39;101458.91;4914262;29;8875;-77
2021/04/29 13:17:11;;;;;;;;;6.75;6.75;;;;;22.51;35.81;101466.31;4895490;29;8904;-78
2021/04/29 13:20:10;;;;;;;;;8.75;8.75;;;;;22.61;34.87;101457.09;4884705;29;9659;-77
2021/04/29 13:22:40;;;;;;;;;5.75;5.75;;;;;22.76;34.54;101446.69;4881875;29;8869;-76
2021/04/29 13:25:14;;;;;;;;;6.25;6.25;;;;;22.81;34.23;101446.31;4894564;29;8859;-79
2021/04/29 13:27:44;;;;;;;;;5.25;5.25;;;;;22.88;36.07;101457.66;4913135;29;9676;-77
2021/04/29 13:30:13;;;;;;;;;9.00;9.00;;;;;22.48;35.60;101459.47;4900318;29;8883;-77
2021/04/29 13:32:41;;;;;;;;;11.75;11.50;;;;;22.35;36.26;101455.34;4907903;29;8866;-78
2021/04/29 13:35:10;;;;;;;;;10.75;10.75;;;;;22.09;36.66;101450.75;4890552;29;8862;-76
2021/04/29 13:38:05;;;;;;;;;12.25;12.25;;;;;21.97;37.01;101448.22;4884563;29;8861;-79
2021/04/29 13:41:01;;;;;;;;;15.00;12.75;;;;;21.75;37.47;101450.03;4903671;29;8843;-77
2021/04/29 13:43:56;;;;;;;;;7.50;7.50;;;;;21.54;37.97;101452.66;4899219;29;9847;-77
2021/04/29 13:46:52;;;;;;;;;6.00;6.00;;;;;21.57;37.35;101449.09;4897985;29;8873;-77
2021/04/29 13:49:48;;;;;;;;;9.25;9.25;;;;;21.93;37.41;101455.84;4900837;29;8858;-76
2021/04/29 13:52:15;;;;;;;;;7.00;7.00;;;;;21.72;37.92;101452.84;4892924;29;8855;-76
2021/04/29 13:55:12;;;;;;;;;9.25;9.25;;;;;21.47;38.55;101442.16;4903676;29;8839;-76
2021/04/29 13:58:08;;;;;;;;;12.25;12.25;;;;;21.42;38.04;101450.94;4887576;29;9627;-77